Friday, October 19, 2018, 4:03 AM EDT
Back to Local

KSBY, Salisbury-wicomico Cty Reg

Location: Salisbury, MD, United States Lat: 38.333
Local Time: 4:03 AM EDT ( 8:03 GMT) Lon: -75.5
Time Zone: US/Eastern Elev: 52 ft

Show me the last for .
Show Decoded

2018-10-19 02:54 METAR KSBY 190654Z AUTO 00000KT 10SM CLR 03/02 A3038 RMK AO2 SLP289 T00280017 =
2018-10-19 01:54 METAR KSBY 190554Z AUTO 00000KT 10SM CLR 02/02 A3038 RMK AO2 SLP291 T00220022
                 10078 20022 56006 =
2018-10-19 00:54 METAR KSBY 190454Z AUTO 10003KT 10SM CLR 03/02 A3039 RMK AO2 SLP293 T00280022
                 401390028 =
2018-10-18 23:54 METAR KSBY 190354Z AUTO 00000KT 10SM CLR 03/03 A3039 RMK AO2 SLP293 T00330028 =
2018-10-18 22:54 METAR KSBY 190254Z AUTO 13003KT 10SM CLR 04/03 A3040 RMK AO2 SLP297 T00390028
                 51004 =
2018-10-18 21:54 METAR KSBY 190154Z 22003KT 10SM CLR 05/04 A3040 RMK AO2 SLP296 T00500039 =
2018-10-18 20:54 METAR KSBY 190054Z 00000KT 10SM CLR 06/04 A3040 RMK AO2 SLP294 T00560044 =
2018-10-18 19:54 METAR KSBY 182354Z 00000KT 10SM CLR 08/04 A3039 RMK AO2 SLP293 T00780039 10139
                 20067 53007 =
2018-10-18 18:54 METAR KSBY 182254Z 00000KT 10SM CLR 09/03 A3038 RMK AO2 SLP291 T00890028 =
2018-10-18 17:54 METAR KSBY 182154Z 29006KT 10SM CLR 12/02 A3038 RMK AO2 SLP288 T01170017 =
2018-10-18 16:54 METAR KSBY 182054Z 30006KT 10SM CLR 13/01 A3037 RMK AO2 SLP286 T01280011 56005 =
2018-10-18 15:54 METAR KSBY 181954Z 30009KT 10SM CLR 14/01 A3037 RMK AO2 SLP287 T01390006 =
2018-10-18 14:54 METAR KSBY 181854Z 34006KT 10SM CLR 13/00 A3037 RMK AO2 SLP288 T01330000 =
2018-10-18 13:54 METAR KSBY 181754Z 34012KT 10SM CLR 13/01 A3038 RMK AO2 SLP291 T01330006 10139
                 20072 58009 =
2018-10-18 12:54 METAR KSBY 181654Z 34011KT 10SM FEW060 13/00 A3040 RMK AO2 SLP297 T01330000 =
2018-10-18 11:54 METAR KSBY 181554Z 33013G17KT 10SM CLR 13/00 A3041 RMK AO2 SLP300 T01280000 =
2018-10-18 10:54 METAR KSBY 181454Z 36010KT 10SM CLR 12/00 A3041 RMK AO2 SLP300 T01170000 51007 =
2018-10-18 09:54 METAR KSBY 181354Z 35010G18KT 10SM CLR 11/M01 A3041 RMK AO2 SLP300 T01111006 =
2018-10-18 08:54 METAR KSBY 181254Z 34010KT 10SM CLR 10/00 A3040 RMK AO2 SLP297 T01000000 =
2018-10-18 07:54 METAR KSBY 181154Z 33004KT 10SM CLR 07/02 A3039 RMK AO2 SLP293 T00720017 10100
                 20067 51028 =
2018-10-18 06:54 METAR KSBY 181054Z 01005KT 10SM CLR 07/01 A3036 RMK AO2 SLP283 T00720011 =
2018-10-18 05:54 METAR KSBY 180954Z AUTO 36005KT 10SM CLR 07/02 A3034 RMK AO2 SLP276 T00720022 =
2018-10-18 04:54 METAR KSBY 180854Z AUTO 35005KT 10SM CLR 08/03 A3031 RMK AO2 SLP265 T00830028
                 51027 =

Support USWX by starting your Amazon purchase here.